Time;durP1;ratioP1;P1;durP2;ratioP2;P2;SDS_P1;SDS_P2;PMS_P1;PMS_P2;Temp;Humidity;BMP_temperature;BMP_pressure;BME280_temperature;BME280_humidity;BME280_pressure;Samples;Min_cycle;Max_cycle;Signal;HPM_P1;HPM_P2
2022/06/23 00:01:15;;;;;;;10.43;3.37;;;;;;;16.90;100.00;98301.41;4969010;28;20220;-49
2022/06/23 00:03:42;;;;;;;13.33;3.43;;;;;;;16.86;100.00;98288.81;4953307;28;20564;-49
2022/06/23 00:06:18;;;;;;;8.87;3.07;;;;;;;16.79;100.00;98276.44;4952698;28;20220;-49
2022/06/23 00:08:46;;;;;;;13.73;3.10;;;;;;;16.76;100.00;98276.84;4953179;29;20245;-49
2022/06/23 00:11:23;;;;;;;14.57;3.47;;;;;;;16.75;100.00;98292.88;4961035;28;20214;-49
2022/06/23 00:13:51;;;;;;;13.10;4.00;;;;;;;16.70;100.00;98290.00;4952926;28;20236;-49
2022/06/23 00:16:25;;;;;;;13.80;3.43;;;;;;;16.67;100.00;98293.84;4952566;28;20212;-50
2022/06/23 00:18:52;;;;;;;11.63;3.27;;;;;;;16.72;100.00;98291.41;4952822;28;20287;-49
2022/06/23 00:21:23;;;;;;;11.60;3.10;;;;;;;16.66;100.00;98287.78;4953114;28;20297;-49
2022/06/23 00:24:15;;;;;;;10.10;3.27;;;;;;;16.60;100.00;98288.56;4953305;28;20231;-49
2022/06/23 00:26:44;;;;;;;7.77;3.20;;;;;;;16.57;100.00;98294.22;4952162;28;20217;-49
2022/06/23 00:29:13;;;;;;;14.43;3.67;;;;;;;16.57;100.00;98294.22;4952965;28;20582;-49
2022/06/23 00:31:44;;;;;;;12.27;3.20;;;;;;;16.53;100.00;98298.25;4935653;29;20230;-49
2022/06/23 00:34:16;;;;;;;11.70;3.53;;;;;;;16.57;100.00;98294.22;4953129;28;20262;-49
2022/06/23 00:36:49;;;;;;;14.50;4.50;;;;;;;16.58;100.00;98289.75;4952645;28;20295;-49
2022/06/23 00:39:24;;;;;;;6.10;3.07;;;;;;;16.69;100.00;98299.72;4934693;29;20622;-49
2022/06/23 00:41:52;;;;;;;14.27;3.23;;;;;;;16.74;100.00;98293.88;4952429;28;20587;-49
2022/06/23 00:44:30;;;;;;;13.03;3.40;;;;;;;16.73;100.00;98287.78;4952813;28;20559;-49
2022/06/23 00:47:02;;;;;;;16.23;3.40;;;;;;;16.71;100.00;98291.63;4963934;28;20211;-49
2022/06/23 00:49:36;;;;;;;9.97;3.27;;;;;;;16.73;100.00;98279.88;4956414;28;20223;-49
2022/06/23 00:52:16;;;;;;;12.47;3.60;;;;;;;16.75;100.00;98282.31;4952742;28;20582;-49
2022/06/23 00:54:47;;;;;;;12.40;3.33;;;;;;;16.67;100.00;98280.66;4954897;28;20228;-49
2022/06/23 00:57:25;;;;;;;8.93;3.40;;;;;;;16.59;100.00;98281.66;4938684;28;20226;-49
2022/06/23 01:00:14;;;;;;;12.03;3.03;;;;;;;16.56;100.00;98279.44;4956519;28;20219;-51
2022/06/23 01:02:45;;;;;;;8.50;3.70;;;;;;;16.54;100.00;98276.19;4938606;29;20219;-50
2022/06/23 01:05:16;;;;;;;16.97;3.63;;;;;;;16.48;100.00;98282.22;4956088;28;20743;-49
2022/06/23 01:07:53;;;;;;;11.87;3.20;;;;;;;16.45;100.00;98277.38;4955770;28;20214;-50
2022/06/23 01:10:25;;;;;;;11.07;3.10;;;;;;;16.37;100.00;98278.38;4948841;28;20218;-50
2022/06/23 01:13:01;;;;;;;9.93;3.37;;;;;;;16.32;100.00;98281.56;4956145;28;20226;-50
2022/06/23 01:15:33;;;;;;;10.93;2.83;;;;;;;16.29;100.00;98295.13;4955929;28;20214;-50
2022/06/23 01:18:05;;;;;;;7.03;2.80;;;;;;;16.35;100.00;98298.81;4955435;28;20556;-50
2022/06/23 01:20:39;;;;;;;7.97;2.50;;;;;;;16.36;100.00;98303.06;4955713;28;20218;-50
2022/06/23 01:23:24;;;;;;;13.50;2.90;;;;;;;16.38;100.00;98296.59;4955998;28;20226;-50
2022/06/23 01:26:08;;;;;;;11.47;3.40;;;;;;;16.41;100.00;98305.94;4938764;28;20233;-50
2022/06/23 01:28:39;;;;;;;11.77;3.97;;;;;;;16.37;100.00;98312.59;4955580;28;20228;-49
2022/06/23 01:31:13;;;;;;;8.57;3.00;;;;;;;16.35;100.00;98304.09;4957626;28;20218;-49
2022/06/23 01:33:46;;;;;;;8.20;3.27;;;;;;;16.32;100.00;98305.28;4960906;28;20220;-50
2022/06/23 01:36:17;;;;;;;11.23;3.07;;;;;;;16.28;100.00;98308.50;4955476;28;20276;-50
2022/06/23 01:38:55;;;;;;;8.57;2.80;;;;;;;16.22;100.00;98307.44;4955525;28;20222;-50
2022/06/23 01:41:28;;;;;;;11.80;3.00;;;;;;;16.22;100.00;98310.91;4937957;29;20222;-50
2022/06/23 01:44:00;;;;;;;9.60;3.17;;;;;;;16.15;100.00;98309.22;4963552;28;20224;-50
2022/06/23 01:46:34;;;;;;;7.07;2.53;;;;;;;16.11;100.00;98311.47;4937573;29;20218;-50
2022/06/23 01:49:05;;;;;;;14.53;3.40;;;;;;;16.11;100.00;98313.25;4955319;28;20587;-49
2022/06/23 01:51:40;;;;;;;10.30;2.60;;;;;;;15.99;100.00;98299.84;4952704;28;20754;-50
2022/06/23 01:54:13;;;;;;;8.57;2.93;;;;;;;15.91;100.00;98306.06;4954371;28;20691;-48
2022/06/23 01:56:49;;;;;;;9.20;3.03;;;;;;;15.91;100.00;98309.53;4952825;28;20227;-48
2022/06/23 01:59:47;;;;;;;10.37;2.80;;;;;;;15.86;100.00;98311.88;4955456;28;20301;-48
2022/06/23 02:02:35;;;;;;;10.33;3.30;;;;;;;15.80;100.00;98320.53;4955213;29;20217;-48
2022/06/23 02:05:32;;;;;;;11.47;3.07;;;;;;;15.84;100.00;98319.16;4955212;28;20244;-48
2022/06/23 02:08:07;;;;;;;12.13;3.17;;;;;;;15.89;100.00;98321.25;4954545;28;20718;-48
2022/06/23 02:10:40;;;;;;;9.87;3.13;;;;;;;15.87;100.00;98315.38;4955290;28;20209;-48
2022/06/23 02:13:19;;;;;;;8.63;3.03;;;;;;;15.85;100.00;98323.41;4955139;28;20222;-48
2022/06/23 02:15:58;;;;;;;8.80;2.47;;;;;;;15.86;100.00;98326.88;4954775;28;20210;-48
2022/06/23 02:18:31;;;;;;;11.80;3.20;;;;;;;15.82;100.00;98320.38;4954380;28;20720;-48
2022/06/23 02:21:06;;;;;;;9.87;3.47;;;;;;;15.82;100.00;98330.91;4954843;28;20614;-48
2022/06/23 02:23:42;;;;;;;9.73;4.20;;;;;;;15.88;100.00;98330.97;4955337;28;20620;-50
2022/06/23 02:26:18;;;;;;;10.30;3.00;;;;;;;15.78;100.00;98340.97;4962191;28;20235;-48
2022/06/23 02:28:56;;;;;;;9.40;2.90;;;;;;;15.76;100.00;98338.56;4948679;28;20217;-49
2022/06/23 02:31:31;;;;;;;8.30;3.20;;;;;;;15.71;100.00;98348.84;4944283;28;20222;-51
2022/06/23 02:34:05;;;;;;;8.43;3.63;;;;;;;15.73;100.00;98344.19;4944592;28;20225;-51
2022/06/23 02:36:57;;;;;;;13.30;3.00;;;;;;;15.65;100.00;98334.59;4946334;28;20226;-49
2022/06/23 02:39:33;;;;;;;6.57;2.60;;;;;;;15.67;100.00;98333.59;4945944;28;20186;-51
2022/06/23 02:42:04;;;;;;;10.27;3.60;;;;;;;15.59;100.00;98321.41;4949553;28;20204;-49
2022/06/23 02:44:59;;;;;;;8.50;3.33;;;;;;;15.53;100.00;98315.09;4929551;29;20227;-49
2022/06/23 02:47:42;;;;;;;9.37;2.70;;;;;;;15.62;100.00;98313.94;4945580;28;20225;-49
2022/06/23 02:50:38;;;;;;;11.27;2.80;;;;;;;15.54;100.00;98313.28;4949181;28;20204;-49
2022/06/23 02:53:27;;;;;;;8.57;3.23;;;;;;;15.48;100.00;98315.66;4930304;28;20198;-49
2022/06/23 02:56:18;;;;;;;9.13;3.20;;;;;;;15.45;100.00;98313.41;4948137;28;20651;-48
2022/06/23 02:58:53;;;;;;;6.77;2.87;;;;;;;15.44;100.00;98319.69;4943293;28;20685;-49
2022/06/23 03:01:27;;;;;;;9.80;2.67;;;;;;;15.50;100.00;98320.72;4944845;28;20559;-49
2022/06/23 03:04:01;;;;;;;12.57;3.30;;;;;;;15.51;100.00;98324.97;4947743;28;20205;-51
2022/06/23 03:06:38;;;;;;;6.37;3.20;;;;;;;15.48;100.00;98328.00;4945844;28;20283;-50
2022/06/23 03:09:11;;;;;;;11.10;3.07;;;;;;;15.43;100.00;98325.13;4947839;28;20203;-49
2022/06/23 03:11:55;;;;;;;7.67;3.20;;;;;;;15.47;100.00;98332.47;4945789;28;20273;-48
2022/06/23 03:14:38;;;;;;;11.67;4.07;;;;;;;15.44;100.00;98335.47;4945011;28;20208;-51
2022/06/23 03:17:15;;;;;;;9.10;3.37;;;;;;;15.38;100.00;98338.84;4930895;29;20221;-49
2022/06/23 03:19:49;;;;;;;7.97;3.17;;;;;;;15.34;100.00;98338.44;4949826;29;20220;-51
2022/06/23 03:22:22;;;;;;;5.27;3.27;;;;;;;15.34;100.00;98337.59;4953676;28;20284;-50
2022/06/23 03:24:59;;;;;;;8.80;2.87;;;;;;;15.39;100.00;98348.38;4954319;29;20202;-48
2022/06/23 03:27:29;;;;;;;7.93;3.50;;;;;;;15.40;100.00;98349.16;4953599;28;20694;-49
2022/06/23 03:30:02;;;;;;;6.17;3.07;;;;;;;15.38;100.00;98359.88;4936396;29;20229;-49
2022/06/23 03:32:35;;;;;;;6.07;3.03;;;;;;;15.35;100.00;98361.09;4953662;29;20190;-49
2022/06/23 03:35:09;;;;;;;8.60;3.03;;;;;;;15.38;100.00;98362.53;4953762;28;20713;-49
2022/06/23 03:37:47;;;;;;;8.43;3.57;;;;;;;15.40;100.00;98371.03;4953770;28;20228;-49
2022/06/23 03:43:18;;;;;;;7.73;3.27;;;;;;;15.48;100.00;98375.34;4953643;29;20198;-49
2022/06/23 03:45:52;;;;;;;10.23;3.00;;;;;;;15.52;100.00;98367.91;4953575;29;20202;-49
2022/06/23 03:48:25;;;;;;;9.57;3.30;;;;;;;15.52;100.00;98370.53;4936191;29;20223;-49
2022/06/23 03:50:58;;;;;;;6.10;2.80;;;;;;;15.55;100.00;98372.78;4953626;29;20204;-50
2022/06/23 03:53:29;;;;;;;12.73;3.17;;;;;;;15.58;100.00;98370.56;4953564;29;20240;-49
2022/06/23 03:55:59;;;;;;;8.33;3.00;;;;;;;15.67;100.00;98365.19;4953279;28;20258;-49
2022/06/23 03:58:39;;;;;;;8.40;3.23;;;;;;;15.70;100.00;98375.31;4953397;29;20201;-49
2022/06/23 04:01:16;;;;;;;9.57;3.63;;;;;;;15.73;100.00;98367.88;4952274;29;20264;-49
2022/06/23 04:03:47;;;;;;;9.57;3.30;;;;;;;15.83;100.00;98372.81;4953681;29;20193;-49
2022/06/23 04:06:35;;;;;;;5.77;2.77;;;;;;;15.84;100.00;98374.44;4952931;28;20272;-49
2022/06/23 04:09:24;;;;;;;6.03;2.47;;;;;;;15.87;100.00;98383.81;4953921;29;20216;-49
2022/06/23 04:11:58;;;;;;;8.67;3.00;;;;;;;15.90;100.00;98378.97;4936062;29;20291;-50
2022/06/23 04:14:32;;;;;;;10.20;3.20;;;;;;;15.98;100.00;98375.34;4936202;29;20201;-50
2022/06/23 04:17:11;;;;;;;10.10;3.07;;;;;;;16.11;100.00;98364.13;4953116;28;20213;-49
2022/06/23 04:19:43;;;;;;;5.93;2.90;;;;;;;16.11;100.00;98363.28;4953673;28;20199;-49
2022/06/23 04:22:17;;;;;;;5.27;2.60;;;;;;;16.11;100.00;98369.38;4957179;29;20225;-48
2022/06/23 04:24:47;;;;;;;6.00;3.07;;;;;;;16.13;100.00;98363.91;4957241;29;20198;-49
2022/06/23 04:27:19;;;;;;;7.20;3.00;;;;;;;16.16;100.00;98360.88;4956689;28;20276;-49
2022/06/23 04:29:51;;;;;;;10.57;2.90;;;;;;;16.18;100.00;98361.50;4957301;29;20214;-49
2022/06/23 04:32:37;;;;;;;7.63;3.07;;;;;;;16.22;100.00;98360.13;4952312;29;20337;-49
2022/06/23 04:35:11;;;;;;;8.07;3.43;;;;;;;16.23;100.00;98357.31;4956993;29;20208;-49
2022/06/23 04:37:50;;;;;;;8.73;3.17;;;;;;;16.26;100.00;98356.09;4956833;28;20705;-49
2022/06/23 04:40:23;;;;;;;5.47;3.13;;;;;;;16.28;100.00;98354.06;4957067;29;20205;-49
2022/06/23 04:42:57;;;;;;;8.87;3.00;;;;;;;16.34;100.00;98358.56;4956990;29;20207;-49
2022/06/23 04:45:40;;;;;;;8.47;3.20;;;;;;;16.39;100.00;98358.00;4957163;29;20199;-49
2022/06/23 04:48:17;;;;;;;7.93;2.90;;;;;;;16.42;100.00;98357.59;4956385;28;20230;-49
2022/06/23 04:50:50;;;;;;;10.50;2.80;;;;;;;16.47;100.00;98355.16;4956856;29;20189;-49
2022/06/23 04:53:43;;;;;;;8.50;3.03;;;;;;;16.56;100.00;98357.66;4956947;29;20207;-51
2022/06/23 04:56:19;;;;;;;7.17;3.13;;;;;;;16.59;100.00;98355.44;4955853;28;20227;-49
2022/06/23 04:58:52;;;;;;;6.60;2.53;;;;;;;16.64;100.00;98366.22;4956739;29;20222;-49
2022/06/23 05:01:25;;;;;;;11.50;2.87;;;;;;;16.68;100.00;98364.81;4948590;29;20210;-49
2022/06/23 05:03:55;;;;;;;6.00;2.40;;;;;;;16.76;100.00;98363.81;4956175;29;20208;-49
2022/06/23 05:06:32;;;;;;;7.63;2.40;;;;;;;16.81;100.00;98371.13;4956319;28;20214;-49
2022/06/23 05:09:05;;;;;;;6.00;2.57;;;;;;;16.88;100.00;98371.16;4952501;28;20222;-49
2022/06/23 05:11:39;;;;;;;5.47;2.10;;;;;;;16.92;100.00;98381.13;4956406;28;20264;-49
2022/06/23 05:14:16;;;;;;;6.57;2.30;;;;;;;16.96;100.00;98373.63;4956270;29;20190;-49
2022/06/23 05:16:47;;;;;;;8.87;2.00;;;;;;;17.08;100.00;98379.97;4956179;28;20522;-49
2022/06/23 05:19:21;;;;;;;7.97;2.40;;;;;;;17.15;100.00;98379.16;4956207;29;20228;-49
2022/06/23 05:21:53;;;;;;;4.73;2.03;;;;;;;17.15;100.00;98382.59;4956449;29;20203;-49
2022/06/23 05:24:24;;;;;;;7.20;2.70;;;;;;;17.21;100.00;98391.56;4956163;29;20202;-49
2022/06/23 05:26:55;;;;;;;6.80;2.30;;;;;;;17.27;100.00;98388.13;4955263;28;20217;-49
2022/06/23 05:29:26;;;;;;;6.73;2.50;;;;;;;17.35;100.00;98390.56;4954908;28;20678;-49
2022/06/23 05:31:58;;;;;;;6.87;2.20;;;;;;;17.47;100.00;98398.69;4955782;28;20277;-49
2022/06/23 05:34:29;;;;;;;7.67;2.30;;;;;;;17.55;100.00;98390.59;4948990;28;20191;-49
2022/06/23 05:37:04;;;;;;;6.63;2.13;;;;;;;17.68;100.00;98397.69;4955406;28;20232;-49
2022/06/23 05:39:41;;;;;;;8.40;2.23;;;;;;;17.79;100.00;98398.94;4956204;29;20211;-49
2022/06/23 05:42:16;;;;;;;7.80;2.87;;;;;;;18.20;100.00;98398.91;4955738;29;20211;-49
2022/06/23 05:44:49;;;;;;;11.27;2.20;;;;;;;18.66;100.00;98389.22;4956150;28;20277;-50
2022/06/23 05:47:19;;;;;;;9.00;2.27;;;;;;;19.09;100.00;98390.47;4938318;29;20223;-49
2022/06/23 05:49:49;;;;;;;6.57;1.87;;;;;;;19.38;99.26;98389.09;4955471;29;20617;-49
2022/06/23 05:52:22;;;;;;;13.90;2.43;;;;;;;19.59;95.39;98389.78;4938636;28;20196;-49
2022/06/23 05:54:54;;;;;;;8.50;2.20;;;;;;;19.79;93.61;98396.72;4937067;29;20200;-49
2022/06/23 05:57:28;;;;;;;7.13;2.03;;;;;;;19.85;92.66;98388.75;4955081;28;20243;-51
2022/06/23 06:00:04;;;;;;;9.63;2.10;;;;;;;19.97;92.11;98393.34;4955688;28;20192;-51
2022/06/23 06:02:39;;;;;;;12.83;2.77;;;;;;;20.04;91.77;98391.47;4948465;29;20253;-49
2022/06/23 06:05:08;;;;;;;7.73;1.90;;;;;;;20.18;90.86;98397.44;4955535;28;20207;-49
2022/06/23 06:07:39;;;;;;;5.77;2.00;;;;;;;20.30;89.30;98398.31;4955268;28;20220;-49
2022/06/23 06:10:16;;;;;;;6.00;1.67;;;;;;;20.35;89.35;98392.34;4955472;28;20219;-50
2022/06/23 06:12:44;;;;;;;6.80;1.90;;;;;;;20.46;88.68;98391.63;4955725;29;20197;-49
2022/06/23 06:15:19;;;;;;;8.20;2.37;;;;;;;20.60;89.32;98387.00;4955346;28;20283;-50
2022/06/23 06:17:48;;;;;;;8.33;2.43;;;;;;;20.76;87.98;98400.66;4955209;28;20222;-49
2022/06/23 06:20:16;;;;;;;6.43;1.73;;;;;;;20.91;88.66;98395.00;4938483;29;20202;-49
2022/06/23 06:22:51;;;;;;;4.33;1.80;;;;;;;20.98;87.07;98401.03;4955834;29;20204;-49
2022/06/23 06:25:24;;;;;;;9.90;2.00;;;;;;;21.18;86.89;98397.31;4955575;28;20633;-51
2022/06/23 06:27:54;;;;;;;5.80;2.00;;;;;;;21.28;85.04;98405.50;4954762;28;20271;-49
2022/06/23 06:30:26;;;;;;;7.40;2.13;;;;;;;21.43;83.10;98404.28;4955401;29;20216;-49
2022/06/23 06:32:54;;;;;;;11.17;2.80;;;;;;;21.45;82.64;98403.03;4955096;29;20674;-49
2022/06/23 06:35:30;;;;;;;10.67;2.40;;;;;;;21.56;81.41;98398.78;4938105;29;20656;-49
2022/06/23 06:38:18;;;;;;;7.73;2.00;;;;;;;21.55;82.43;98407.00;4955493;29;20206;-49
2022/06/23 06:40:49;;;;;;;9.03;3.00;;;;;;;21.62;79.46;98397.06;4954759;29;20240;-49
2022/06/23 06:43:19;;;;;;;7.07;2.67;;;;;;;21.64;80.18;98400.34;4954474;28;20234;-49
2022/06/23 06:45:48;;;;;;;10.13;2.90;;;;;;;21.81;79.53;98398.59;4954978;29;20288;-49
2022/06/23 06:48:20;;;;;;;9.57;3.00;;;;;;;21.75;77.65;98401.38;4954566;28;20656;-49
2022/06/23 06:50:50;;;;;;;8.10;2.93;;;;;;;21.79;77.96;98410.50;4954582;28;20208;-49
2022/06/23 06:53:39;;;;;;;10.07;3.50;;;;;;;21.61;79.46;98411.38;4955277;29;20283;-51
2022/06/23 06:56:15;;;;;;;7.80;2.80;;;;;;;21.81;79.70;98408.44;4954317;28;20201;-49
2022/06/23 06:58:47;;;;;;;10.10;3.57;;;;;;;21.87;79.18;98404.84;4954816;29;20232;-49
2022/06/23 07:01:19;;;;;;;11.07;3.50;;;;;;;21.88;77.81;98395.84;4937679;29;20205;-50
2022/06/23 07:03:49;;;;;;;14.17;3.07;;;;;;;21.87;78.80;98396.88;4953150;29;20232;-50
2022/06/23 07:06:19;;;;;;;11.47;3.47;;;;;;;22.10;78.88;98392.63;4954138;28;20212;-50
2022/06/23 07:08:52;;;;;;;8.50;2.90;;;;;;;22.19;78.20;98388.56;4954596;29;20653;-49
2022/06/23 07:11:30;;;;;;;7.00;2.77;;;;;;;22.41;78.33;98394.09;4946478;29;20281;-50
2022/06/23 07:14:02;;;;;;;7.63;2.80;;;;;;;22.49;76.34;98394.78;4954377;29;20201;-49
2022/06/23 07:16:40;;;;;;;8.53;3.10;;;;;;;22.64;75.10;98399.59;4953958;28;20214;-49
2022/06/23 07:19:14;;;;;;;11.43;3.43;;;;;;;22.45;75.02;98399.75;4954119;29;20197;-49
2022/06/23 07:21:46;;;;;;;6.63;2.90;;;;;;;22.65;74.90;98394.06;4954305;29;20199;-50
2022/06/23 07:24:18;;;;;;;11.47;3.30;;;;;;;22.76;73.89;98396.94;4953895;29;20216;-49
2022/06/23 07:26:50;;;;;;;8.47;3.27;;;;;;;22.87;74.26;98393.41;4953965;28;20273;-49
2022/06/23 07:29:41;;;;;;;12.27;2.63;;;;;;;23.10;73.62;98395.19;4954311;29;20256;-50
2022/06/23 07:32:17;;;;;;;8.67;2.53;;;;;;;23.17;71.53;98379.03;4954002;29;20214;-50
2022/06/23 07:34:50;;;;;;;8.37;2.97;;;;;;;23.09;70.73;98387.41;4954259;29;20277;-50
2022/06/23 07:37:25;;;;;;;6.23;2.83;;;;;;;23.11;68.75;98391.47;4951167;28;20295;-49
2022/06/23 07:39:59;;;;;;;8.43;2.63;;;;;;;22.98;69.59;98381.09;4951239;29;20206;-49
2022/06/23 07:42:42;;;;;;;7.90;2.30;;;;;;;23.07;69.39;98385.00;4951734;28;20643;-49
2022/06/23 07:45:16;;;;;;;9.40;2.67;;;;;;;23.08;68.68;98389.28;4954024;28;20193;-49
2022/06/23 07:47:43;;;;;;;6.53;2.20;;;;;;;23.11;70.03;98380.00;4953250;28;20215;-49
2022/06/23 07:50:11;;;;;;;5.27;2.37;;;;;;;23.27;69.74;98379.25;4953672;29;20241;-50
2022/06/23 07:52:40;;;;;;;7.83;2.50;;;;;;;23.34;68.35;98379.09;4953750;29;20543;-49
2022/06/23 07:55:10;;;;;;;7.77;2.63;;;;;;;23.41;68.57;98379.75;4953152;29;20210;-49
2022/06/23 07:57:39;;;;;;;10.27;2.40;;;;;;;23.31;67.19;98381.44;4935731;29;20564;-49
2022/06/23 08:00:08;;;;;;;6.07;2.80;;;;;;;23.32;67.06;98386.50;4954983;28;20289;-51
2022/06/23 08:02:47;;;;;;;7.60;2.30;;;;;;;23.29;65.40;98382.47;4948185;28;20212;-49
2022/06/23 08:05:18;;;;;;;7.10;2.50;;;;;;;23.29;66.03;98379.03;4946589;28;20226;-49
2022/06/23 08:07:46;;;;;;;11.43;2.70;;;;;;;23.33;65.82;98382.00;4928337;29;20568;-48
2022/06/23 08:10:18;;;;;;;12.97;2.70;;;;;;;23.36;67.22;98377.00;4948075;28;20229;-49
2022/06/23 08:12:55;;;;;;;6.43;2.30;;;;;;;23.47;66.30;98371.84;4945815;29;20197;-48
2022/06/23 08:18:26;;;;;;;9.13;2.67;;;;;;;23.53;63.80;98368.22;4947922;28;20195;-49
2022/06/23 08:21:02;;;;;;;6.77;2.10;;;;;;;23.71;62.49;98370.63;4945010;28;20203;-50
2022/06/23 08:23:31;;;;;;;8.43;3.13;;;;;;;23.62;63.58;98374.75;4951218;28;20190;-49
2022/06/23 08:26:00;;;;;;;9.47;2.00;;;;;;;23.71;63.46;98372.50;4953781;28;20196;-49
2022/06/23 08:28:29;;;;;;;6.23;2.30;;;;;;;23.75;62.81;98365.63;4953778;29;20202;-49
2022/06/23 08:30:56;;;;;;;9.93;2.70;;;;;;;23.73;64.47;98365.06;4953241;29;20222;-48
2022/06/23 08:33:25;;;;;;;7.40;2.70;;;;;;;23.58;65.53;98361.13;4954317;28;20547;-49
2022/06/23 08:35:56;;;;;;;9.03;2.30;;;;;;;23.75;63.54;98360.31;4953614;28;20279;-49
2022/06/23 08:38:27;;;;;;;8.10;2.37;;;;;;;23.84;62.55;98363.34;4943331;28;20276;-49
2022/06/23 08:41:06;;;;;;;9.70;2.67;;;;;;;23.69;61.40;98362.06;4948589;28;20291;-49
2022/06/23 08:43:41;;;;;;;16.83;2.23;;;;;;;23.90;60.62;98354.38;4952133;29;20195;-49
2022/06/23 08:46:18;;;;;;;9.10;2.23;;;;;;;23.79;62.11;98361.44;4935319;28;20212;-49
2022/06/23 08:48:53;;;;;;;11.47;2.60;;;;;;;23.79;62.96;98355.28;4952909;29;20195;-49
2022/06/23 08:51:26;;;;;;;6.50;2.47;;;;;;;23.86;62.81;98355.91;4952641;29;20268;-49
2022/06/23 08:54:10;;;;;;;7.17;2.70;;;;;;;23.78;64.94;98353.66;4952626;29;20201;-48
2022/06/23 08:56:44;;;;;;;12.00;2.60;;;;;;;23.96;63.16;98356.06;4935057;29;20214;-49
2022/06/23 08:59:21;;;;;;;9.77;2.83;;;;;;;24.02;62.00;98360.44;4952902;29;20616;-49
2022/06/23 09:01:59;;;;;;;6.97;3.00;;;;;;;24.22;61.64;98356.44;4934588;29;20459;-49
2022/06/23 09:04:52;;;;;;;8.97;2.77;;;;;;;24.17;63.11;98356.38;4953042;29;20207;-49
2022/06/23 09:07:42;;;;;;;9.87;2.50;;;;;;;24.40;60.21;98363.34;4952322;28;20218;-49
2022/06/23 09:10:24;;;;;;;10.47;2.80;;;;;;;24.35;60.18;98354.47;4955699;29;20219;-49
2022/06/23 09:13:02;;;;;;;9.80;2.50;;;;;;;24.14;61.99;98356.88;4955975;29;20203;-49
2022/06/23 09:16:07;;;;;;;7.20;2.77;;;;;;;24.33;62.70;98352.03;4938710;29;20216;-49
2022/06/23 09:18:57;;;;;;;7.30;2.50;;;;;;;24.41;61.98;98346.28;4955608;28;20200;-50
2022/06/23 09:21:35;;;;;;;6.73;2.80;;;;;;;24.76;60.85;98350.44;4955651;29;20188;-49
2022/06/23 09:24:53;;;;;;;12.93;2.43;;;;;;;25.10;60.17;98343.25;4955463;29;20199;-50
2022/06/23 09:27:33;;;;;;;5.63;2.37;;;;;;;24.89;59.92;98332.41;4930749;29;20535;-49
2022/06/23 09:30:05;;;;;;;9.53;2.87;;;;;;;25.20;59.40;98336.16;4955403;29;20197;-49
2022/06/23 09:33:00;;;;;;;12.13;3.67;;;;;;;24.99;58.93;98319.13;4955735;29;20220;-49
2022/06/23 09:35:45;;;;;;;9.63;2.93;;;;;;;24.93;59.00;98322.81;4938382;29;20196;-49
2022/06/23 09:38:48;;;;;;;9.50;3.20;;;;;;;24.95;59.33;98312.69;4954966;28;20211;-50
2022/06/23 09:41:33;;;;;;;9.50;3.27;;;;;;;25.11;60.53;98316.31;4955316;29;20617;-49
2022/06/23 09:44:28;;;;;;;7.23;2.67;;;;;;;25.19;61.16;98310.53;4955641;29;20285;-50
2022/06/23 09:47:26;;;;;;;9.67;2.80;;;;;;;25.10;58.12;98305.88;4955091;28;20223;-50
2022/06/23 09:50:10;;;;;;;11.50;3.13;;;;;;;25.09;57.72;98309.59;4935534;29;20210;-49
2022/06/23 09:53:09;;;;;;;8.03;2.90;;;;;;;25.14;59.90;98309.66;4955408;29;20197;-52
2022/06/23 09:55:54;;;;;;;9.77;3.10;;;;;;;25.15;58.66;98301.41;4930290;29;20260;-51
2022/06/23 09:58:37;;;;;;;12.23;2.97;;;;;;;25.18;57.64;98303.56;4954838;28;20201;-49
2022/06/23 10:01:19;;;;;;;6.97;2.90;;;;;;;25.15;58.86;98306.75;4954926;29;20696;-49
2022/06/23 10:04:02;;;;;;;11.80;3.50;;;;;;;25.23;57.46;98304.66;4955137;29;20200;-49
2022/06/23 10:06:56;;;;;;;9.50;2.93;;;;;;;25.29;58.67;98298.31;4953563;28;20221;-50
2022/06/23 10:09:44;;;;;;;8.80;3.00;;;;;;;25.30;57.92;98297.25;4947704;29;20197;-50
2022/06/23 10:12:48;;;;;;;8.63;2.50;;;;;;;25.46;58.97;98304.31;4955550;29;20217;-49
2022/06/23 10:15:51;;;;;;;14.77;3.20;;;;;;;25.28;58.42;98296.69;4955252;29;20208;-49
2022/06/23 10:18:37;;;;;;;12.57;3.00;;;;;;;25.42;59.39;98291.72;4954359;28;20281;-49
2022/06/23 10:21:17;;;;;;;10.07;2.50;;;;;;;25.64;57.60;98288.94;4955167;29;20213;-49
2022/06/23 10:24:02;;;;;;;11.30;3.20;;;;;;;25.66;57.99;98294.03;4954902;29;20214;-49
2022/06/23 10:26:50;;;;;;;10.83;3.50;;;;;;;25.72;55.05;98293.00;4948355;28;20644;-49
2022/06/23 10:29:48;;;;;;;8.57;2.77;;;;;;;25.87;54.64;98295.78;4937593;29;20200;-50
2022/06/23 10:32:33;;;;;;;10.20;3.37;;;;;;;25.88;55.46;98294.72;4954809;29;20589;-50
2022/06/23 10:35:29;;;;;;;10.53;2.90;;;;;;;26.04;55.22;98292.91;4954557;29;20201;-49
2022/06/23 10:38:19;;;;;;;11.37;2.80;;;;;;;25.96;56.44;98292.59;4953294;28;20324;-49
2022/06/23 10:41:05;;;;;;;8.93;3.03;;;;;;;26.23;54.91;98295.94;4954655;29;20189;-50
2022/06/23 10:43:58;;;;;;;9.43;2.80;;;;;;;26.37;53.93;98282.06;4954736;29;20585;-49
2022/06/23 10:46:32;;;;;;;11.60;3.37;;;;;;;26.40;55.81;98275.41;4942801;28;20232;-49
2022/06/23 10:49:25;;;;;;;7.50;3.83;;;;;;;26.44;56.12;98276.50;4954477;29;20677;-49
2022/06/23 10:52:22;;;;;;;7.40;2.77;;;;;;;26.67;53.21;98272.50;4954423;29;20226;-49
2022/06/23 10:55:25;;;;;;;11.50;3.10;;;;;;;26.72;53.33;98267.16;4954561;29;20231;-49
2022/06/23 10:58:10;;;;;;;5.37;3.00;;;;;;;26.85;53.99;98265.06;4946204;28;20246;-49
2022/06/23 11:00:47;;;;;;;10.30;2.80;;;;;;;26.96;52.81;98264.78;4953829;29;20700;-51
2022/06/23 11:03:39;;;;;;;12.90;3.57;;;;;;;26.84;52.28;98252.75;4954168;29;20206;-49
2022/06/23 11:06:33;;;;;;;8.13;3.33;;;;;;;26.88;53.91;98253.81;4953386;28;20206;-50
2022/06/23 11:09:23;;;;;;;10.10;2.93;;;;;;;26.95;53.12;98244.44;4951547;29;20217;-49
2022/06/23 11:12:05;;;;;;;9.37;3.47;;;;;;;27.10;52.99;98240.94;4953738;29;20212;-49
2022/06/23 11:14:45;;;;;;;9.73;3.20;;;;;;;27.18;52.62;98239.59;4953785;29;20640;-50
2022/06/23 11:17:23;;;;;;;7.40;2.67;;;;;;;27.26;52.53;98235.56;4953437;28;20228;-50
2022/06/23 11:20:11;;;;;;;11.10;3.27;;;;;;;27.47;53.41;98224.81;4954064;29;20275;-49
2022/06/23 11:23:05;;;;;;;15.00;3.17;;;;;;;27.44;51.69;98220.81;4954055;29;20207;-50
2022/06/23 11:25:45;;;;;;;8.40;2.70;;;;;;;27.60;51.70;98226.13;4953407;29;20199;-50
2022/06/23 11:28:24;;;;;;;7.53;2.97;;;;;;;27.55;51.12;98216.25;4953668;28;20315;-49
2022/06/23 11:31:03;;;;;;;11.03;3.47;;;;;;;27.69;52.31;98206.56;4953796;29;20255;-49
2022/06/23 11:33:47;;;;;;;9.68;3.00;;;;;;;27.83;51.63;98208.66;4953898;29;20184;-49
2022/06/23 11:36:23;;;;;;;7.50;2.50;;;;;;;27.83;51.37;98211.31;4952744;28;20224;-50
2022/06/23 11:39:04;;;;;;;9.27;3.13;;;;;;;27.84;52.01;98211.03;4953734;29;20191;-49
2022/06/23 11:41:49;;;;;;;11.90;3.20;;;;;;;28.00;52.36;98202.94;4953756;29;20593;-49
2022/06/23 11:44:27;;;;;;;10.40;2.90;;;;;;;27.99;51.89;98193.28;4953247;29;20284;-50
2022/06/23 11:47:01;;;;;;;7.63;3.27;;;;;;;28.27;50.62;98194.47;4953504;28;20238;-49
2022/06/23 11:49:46;;;;;;;7.70;3.13;;;;;;;28.53;50.18;98197.00;4953311;29;20610;-50
2022/06/23 11:52:28;;;;;;;13.63;3.50;;;;;;;28.65;49.08;98188.56;4953270;29;20651;-50
2022/06/23 11:55:17;;;;;;;13.37;3.23;;;;;;;28.56;50.23;98191.06;4950157;29;21017;-49
2022/06/23 11:58:13;;;;;;;10.40;3.57;;;;;;;28.19;50.06;98186.22;4947262;29;20228;-50
2022/06/23 12:00:50;;;;;;;9.67;3.00;;;;;;;28.36;51.09;98196.56;4953416;29;20275;-51
2022/06/23 12:03:33;;;;;;;10.13;3.30;;;;;;;28.63;49.58;98184.56;4953661;29;20261;-50
2022/06/23 12:06:12;;;;;;;15.20;3.37;;;;;;;28.74;49.82;98183.41;4953154;28;20208;-50
2022/06/23 12:08:55;;;;;;;13.70;3.67;;;;;;;28.32;50.52;98182.91;4951964;29;20254;-49
2022/06/23 12:11:27;;;;;;;12.63;3.63;;;;;;;28.48;49.17;98175.56;4946122;29;20209;-49
2022/06/23 12:13:55;;;;;;;9.30;3.40;;;;;;;28.23;49.72;98171.16;4953174;28;20328;-50
2022/06/23 12:16:22;;;;;;;13.97;3.40;;;;;;;28.64;49.82;98165.47;4945428;28;20223;-49
2022/06/23 12:18:54;;;;;;;9.30;3.00;;;;;;;28.49;48.63;98158.38;4953400;28;20205;-50
2022/06/23 12:21:33;;;;;;;8.43;3.13;;;;;;;28.72;50.86;98161.41;4928306;29;20196;-50